createdAt,value
2022-08-06T00:00:03.563Z,24.95
2022-08-06T00:02:25.884Z,24.85
2022-08-06T00:04:58.002Z,24.77
2022-08-06T00:07:28.087Z,24.48
2022-08-06T00:10:00.898Z,25.53
2022-08-06T00:12:32.447Z,26.77
2022-08-06T00:15:12.249Z,24.77
2022-08-06T00:17:43.920Z,24.73
2022-08-06T00:20:25.864Z,24.77
2022-08-06T00:22:58.418Z,25.60
2022-08-06T00:25:26.663Z,23.67
2022-08-06T00:27:56.161Z,24.80
2022-08-06T00:30:24.055Z,26.80
2022-08-06T00:32:53.344Z,26.08
2022-08-06T00:35:23.416Z,23.58
2022-08-06T00:37:57.639Z,24.15
2022-08-06T00:40:28.990Z,24.60
2022-08-06T00:42:58.595Z,25.90
2022-08-06T00:45:31.550Z,25.83
2022-08-06T00:48:06.775Z,25.42
2022-08-06T00:50:36.090Z,25.10
2022-08-06T00:53:05.968Z,24.00
2022-08-06T00:55:36.411Z,24.60
2022-08-06T00:58:06.973Z,25.00
2022-08-06T01:00:51.504Z,24.95
2022-08-06T01:03:27.532Z,24.67
2022-08-06T01:06:54.665Z,24.08
2022-08-06T01:08:57.252Z,24.90
2022-08-06T01:11:26.157Z,25.02
2022-08-06T01:14:03.093Z,26.13
2022-08-06T01:16:39.725Z,26.30
2022-08-06T01:21:20.738Z,24.20
2022-08-06T01:22:37.373Z,24.10
2022-08-06T01:25:24.240Z,25.38
2022-08-06T01:28:00.988Z,24.95
2022-08-06T01:30:33.361Z,23.60
2022-08-06T01:33:10.618Z,25.92
2022-08-06T01:35:55.243Z,26.23
2022-08-06T01:38:27.970Z,24.27
2022-08-06T01:40:57.176Z,25.55
2022-08-06T01:44:07.712Z,25.10
2022-08-06T01:46:17.532Z,24.55
2022-08-06T01:48:46.375Z,25.55
2022-08-06T01:51:17.187Z,26.13
2022-08-06T01:54:06.632Z,24.92
2022-08-06T01:56:57.016Z,25.45
2022-08-06T01:59:32.079Z,25.42
2022-08-06T02:02:03.290Z,25.45
2022-08-06T02:04:39.125Z,25.48
2022-08-06T02:07:14.254Z,25.52
2022-08-06T02:12:31.461Z,26.38
2022-08-06T02:15:06.273Z,26.48
2022-08-06T02:17:53.867Z,26.05
2022-08-06T02:20:37.064Z,23.80
2022-08-06T02:23:10.293Z,25.05
2022-08-06T02:25:39.450Z,25.70
2022-08-06T02:28:09.937Z,27.88
2022-08-06T02:30:43.128Z,24.63
2022-08-06T02:33:18.214Z,25.92
2022-08-06T02:35:51.176Z,24.65
2022-08-06T02:38:29.352Z,26.65
2022-08-06T02:41:10.441Z,24.02
2022-08-06T02:46:14.932Z,26.05
2022-08-06T02:48:48.537Z,25.02
2022-08-06T02:52:10.868Z,25.98
2022-08-06T02:54:13.252Z,26.75
2022-08-06T02:56:46.894Z,26.45
2022-08-06T02:59:21.438Z,25.73
2022-08-06T03:01:55.773Z,27.38
2022-08-06T03:04:32.752Z,27.95
2022-08-06T03:07:26.671Z,27.02
2022-08-06T03:09:56.420Z,26.90
2022-08-06T03:12:30.079Z,24.75
2022-08-06T03:15:05.986Z,27.17
2022-08-06T03:17:42.079Z,27.48
2022-08-06T03:20:16.669Z,26.38
2022-08-06T03:22:50.023Z,27.63
2022-08-06T03:25:21.150Z,27.38
2022-08-06T03:28:02.147Z,26.60
2022-08-06T03:30:33.866Z,27.17
2022-08-06T03:33:08.157Z,28.40
2022-08-06T03:35:56.078Z,27.15
2022-08-06T03:38:28.803Z,28.38
2022-08-06T03:40:58.749Z,29.83
2022-08-06T03:43:27.590Z,35.78
2022-08-06T03:46:01.937Z,30.67
2022-08-06T03:48:38.670Z,29.23
2022-08-06T03:51:12.577Z,27.85
2022-08-06T03:53:46.892Z,29.88
2022-08-06T03:56:28.755Z,30.13
2022-08-06T03:59:04.574Z,30.73
2022-08-06T04:01:49.856Z,29.17
2022-08-06T04:04:26.787Z,29.67
2022-08-06T04:06:56.474Z,29.50
2022-08-06T04:09:33.614Z,28.73
2022-08-06T04:12:58.996Z,29.90
2022-08-06T04:15:07.721Z,29.85
2022-08-06T04:17:40.841Z,30.48
2022-08-06T04:20:14.683Z,30.33
2022-08-06T04:22:59.926Z,30.85
2022-08-06T04:25:37.525Z,30.33
2022-08-06T04:28:06.949Z,29.23
2022-08-06T04:30:39.665Z,30.17
2022-08-06T04:33:19.961Z,28.05
2022-08-06T04:36:05.663Z,28.65
2022-08-06T04:38:39.526Z,27.30
2022-08-06T04:41:09.556Z,26.88
2022-08-06T04:43:51.886Z,28.67
2022-08-06T04:46:21.769Z,28.30
2022-08-06T04:48:56.727Z,27.58
2022-08-06T04:52:35.039Z,29.33
2022-08-06T04:54:15.156Z,29.23
2022-08-06T04:56:49.806Z,28.70
2022-08-06T04:59:19.104Z,29.05
2022-08-06T05:01:53.649Z,29.00
2022-08-06T05:04:30.153Z,28.63
2022-08-06T05:07:13.651Z,27.73
2022-08-06T05:09:44.194Z,28.95
2022-08-06T05:12:27.274Z,27.67
2022-08-06T05:15:00.296Z,26.85
2022-08-06T05:17:34.746Z,26.05
2022-08-06T05:20:12.657Z,27.13
2022-08-06T05:23:03.706Z,26.75
2022-08-06T05:25:36.209Z,26.15
2022-08-06T05:28:11.035Z,24.40
2022-08-06T05:30:45.165Z,25.63
2022-08-06T05:33:22.643Z,25.10
2022-08-06T05:36:02.354Z,24.13
2022-08-06T05:38:37.610Z,25.23
2022-08-06T05:41:07.937Z,26.40
2022-08-06T05:44:00.117Z,24.83
2022-08-06T05:46:26.317Z,24.70
2022-08-06T05:48:58.969Z,25.48
2022-08-06T05:51:43.033Z,24.95
2022-08-06T05:54:22.243Z,23.67
2022-08-06T05:56:53.534Z,25.33
2022-08-06T05:59:38.623Z,22.02
2022-08-06T06:02:16.628Z,23.15
2022-08-06T06:06:01.960Z,25.50
2022-08-06T06:08:10.605Z,22.60
2022-08-06T06:10:26.854Z,20.40
2022-08-06T06:12:56.195Z,20.58
2022-08-06T06:16:00.409Z,21.80
2022-08-06T06:18:34.167Z,19.88
2022-08-06T06:21:18.253Z,21.37
2022-08-06T06:24:08.353Z,17.08
2022-08-06T06:26:45.202Z,17.55
2022-08-06T06:30:02.614Z,16.95
2022-08-06T06:32:40.915Z,17.65
2022-08-06T06:35:22.645Z,17.00
2022-08-06T06:37:59.289Z,17.45
2022-08-06T06:40:40.157Z,17.00
2022-08-06T06:43:44.249Z,16.77
2022-08-06T06:46:37.425Z,16.08
2022-08-06T06:49:59.259Z,16.30
2022-08-06T06:52:08.955Z,15.88
2022-08-06T06:54:43.024Z,16.13
2022-08-06T06:57:23.490Z,15.88
2022-08-06T07:00:04.850Z,16.15
2022-08-06T07:02:47.543Z,15.52
2022-08-06T07:05:23.968Z,15.88
2022-08-06T07:08:08.129Z,15.98
2022-08-06T07:10:40.862Z,16.13
2022-08-06T07:13:15.813Z,16.15
2022-08-06T07:15:53.941Z,17.70
2022-08-06T07:18:29.654Z,17.25
2022-08-06T07:21:03.338Z,16.00
2022-08-06T07:24:07.101Z,16.45
2022-08-06T07:26:22.676Z,16.98
2022-08-06T07:28:57.797Z,17.20
2022-08-06T07:31:36.573Z,16.83
2022-08-06T07:34:05.597Z,17.30
2022-08-06T07:36:40.529Z,18.45
2022-08-06T07:39:14.964Z,17.58
2022-08-06T07:42:07.579Z,16.80
2022-08-06T07:44:56.271Z,16.95
2022-08-06T07:47:46.134Z,17.13
2022-08-06T07:50:24.664Z,16.48
2022-08-06T07:52:54.993Z,18.67
2022-08-06T07:55:24.163Z,17.35
2022-08-06T07:57:54.500Z,16.60
2022-08-06T08:00:27.147Z,17.38
2022-08-06T08:02:57.622Z,16.17
2022-08-06T08:05:26.262Z,17.73
2022-08-06T08:08:09.452Z,16.02
2022-08-06T08:10:38.425Z,16.80
2022-08-06T08:13:13.251Z,18.48
2022-08-06T08:15:43.641Z,17.30
2022-08-06T08:18:13.175Z,17.17
2022-08-06T08:20:52.947Z,17.42
2022-08-06T08:23:33.471Z,16.92
2022-08-06T08:26:04.679Z,15.73
2022-08-06T08:28:33.093Z,15.10
2022-08-06T08:31:01.198Z,14.52
2022-08-06T08:33:44.975Z,14.70
2022-08-06T08:36:13.784Z,13.50
2022-08-06T08:38:42.807Z,15.90
2022-08-06T08:41:22.132Z,16.90
2022-08-06T08:44:01.073Z,15.52
2022-08-06T08:46:37.661Z,15.23
2022-08-06T08:49:12.294Z,12.80
2022-08-06T08:51:46.576Z,12.75
2022-08-06T08:54:21.891Z,13.77
2022-08-06T08:57:09.255Z,12.57
2022-08-06T09:00:00.112Z,13.25
2022-08-06T09:02:30.576Z,12.90
2022-08-06T09:05:00.357Z,12.45
2022-08-06T09:07:36.112Z,12.55
2022-08-06T09:10:06.701Z,12.68
2022-08-06T09:12:45.189Z,12.07
2022-08-06T09:15:18.994Z,12.60
2022-08-06T09:18:11.976Z,12.50
2022-08-06T09:20:41.594Z,11.52
2022-08-06T09:23:14.727Z,11.65
2022-08-06T09:25:49.867Z,12.05
2022-08-06T09:28:32.181Z,11.82
2022-08-06T09:31:02.489Z,12.30
2022-08-06T09:34:29.093Z,10.52
2022-08-06T09:36:30.462Z,10.88
2022-08-06T09:39:00.466Z,11.75
2022-08-06T09:41:30.544Z,12.07
2022-08-06T09:44:03.212Z,10.75
2022-08-06T09:46:41.498Z,12.02
2022-08-06T09:49:48.140Z,11.15
2022-08-06T09:52:13.882Z,12.07
2022-08-06T09:54:42.475Z,11.55
2022-08-06T09:57:10.451Z,11.40
2022-08-06T09:59:49.978Z,11.43
2022-08-06T10:02:24.004Z,11.90
2022-08-06T10:05:08.649Z,12.18
2022-08-06T10:08:05.902Z,12.50
2022-08-06T10:10:44.420Z,11.38
2022-08-06T10:13:15.743Z,13.10
2022-08-06T10:16:00.255Z,11.10
2022-08-06T10:18:40.385Z,12.18
2022-08-06T10:21:27.498Z,13.38
2022-08-06T10:24:11.416Z,12.63
2022-08-06T10:26:43.388Z,12.60
2022-08-06T10:29:15.724Z,13.05
2022-08-06T10:34:21.312Z,13.65
2022-08-06T10:36:58.517Z,13.63
2022-08-06T10:40:08.026Z,12.80
2022-08-06T10:42:22.162Z,14.25
2022-08-06T10:44:51.301Z,13.20
2022-08-06T10:48:59.270Z,12.38
2022-08-06T10:50:25.995Z,12.70
2022-08-06T10:53:02.401Z,12.88
2022-08-06T10:55:44.215Z,13.23
2022-08-06T10:58:13.090Z,12.50
2022-08-06T11:00:44.900Z,14.73
2022-08-06T11:03:31.425Z,13.25
2022-08-06T11:06:11.116Z,14.45
2022-08-06T11:08:58.868Z,12.77
2022-08-06T11:11:44.457Z,13.52
2022-08-06T11:14:35.163Z,12.82
2022-08-06T11:17:11.100Z,13.35
2022-08-06T11:19:46.362Z,12.73
2022-08-06T11:22:36.955Z,13.10
2022-08-06T11:25:25.912Z,13.00
2022-08-06T11:28:02.884Z,12.50
2022-08-06T11:30:38.984Z,13.65
2022-08-06T11:33:06.940Z,12.90
2022-08-06T11:35:51.821Z,12.55
2022-08-06T11:39:09.670Z,12.98
2022-08-06T11:41:57.153Z,13.55
2022-08-06T11:44:34.225Z,13.93
2022-08-06T11:47:14.272Z,13.52
2022-08-06T11:49:44.910Z,13.32
2022-08-06T11:52:40.823Z,14.30
2022-08-06T11:55:12.501Z,12.88
2022-08-06T12:00:22.352Z,13.63
2022-08-06T12:02:57.166Z,13.95
2022-08-06T12:05:57.323Z,13.85
2022-08-06T12:08:42.885Z,13.25
2022-08-06T12:11:29.933Z,13.63
2022-08-06T12:14:32.923Z,14.60
2022-08-06T12:16:59.550Z,13.27
2022-08-06T12:19:32.716Z,15.35
2022-08-06T12:22:01.950Z,14.30
2022-08-06T12:24:45.245Z,14.70
2022-08-06T12:27:21.569Z,14.52
2022-08-06T12:29:57.017Z,15.25
2022-08-06T12:32:28.369Z,14.55
2022-08-06T12:34:59.866Z,14.85
2022-08-06T12:37:41.282Z,13.02
2022-08-06T12:40:17.039Z,13.75
2022-08-06T12:42:53.556Z,13.90
2022-08-06T12:46:05.048Z,15.02
2022-08-06T12:48:13.767Z,13.63
2022-08-06T12:50:44.549Z,14.57
2022-08-06T12:53:14.053Z,13.65
2022-08-06T12:55:45.136Z,13.55
2022-08-06T12:58:41.330Z,13.70
2022-08-06T13:01:07.659Z,13.05
2022-08-06T13:03:41.710Z,12.80
2022-08-06T13:06:32.420Z,13.52
2022-08-06T13:09:08.205Z,13.35
2022-08-06T13:11:41.667Z,13.95
2022-08-06T13:14:18.235Z,13.73
2022-08-06T13:16:55.463Z,13.07
2022-08-06T13:19:28.311Z,13.82
2022-08-06T13:22:05.801Z,13.50
2022-08-06T13:24:35.580Z,12.70
2022-08-06T13:27:05.927Z,14.02
2022-08-06T13:30:31.805Z,12.38
2022-08-06T13:32:33.271Z,12.98
2022-08-06T13:35:07.363Z,12.90
2022-08-06T13:37:56.029Z,13.00
2022-08-06T13:40:46.199Z,13.32
2022-08-06T13:43:38.773Z,13.93
2022-08-06T13:46:08.288Z,14.05
2022-08-06T13:48:43.839Z,27.02
2022-08-06T13:51:21.806Z,19.83
2022-08-06T13:53:50.984Z,26.27
2022-08-06T13:56:21.610Z,13.85
2022-08-06T13:58:56.660Z,12.98
2022-08-06T14:01:35.252Z,13.88
2022-08-06T14:04:14.215Z,12.75
2022-08-06T14:06:46.529Z,13.68
2022-08-06T14:09:20.454Z,13.25
2022-08-06T14:11:54.223Z,12.48
2022-08-06T14:14:23.522Z,13.95
2022-08-06T14:16:54.437Z,12.05
2022-08-06T14:20:14.888Z,12.02
2022-08-06T14:22:12.252Z,11.13
2022-08-06T14:24:40.096Z,12.10
2022-08-06T14:27:14.761Z,13.25
2022-08-06T14:30:27.070Z,12.60
2022-08-06T14:32:32.416Z,12.18
2022-08-06T14:35:04.610Z,12.52
2022-08-06T14:37:50.534Z,12.13
2022-08-06T14:40:32.373Z,13.05
2022-08-06T14:43:00.793Z,12.60
2022-08-06T14:45:30.019Z,12.27
2022-08-06T14:48:07.435Z,12.80
2022-08-06T14:50:37.843Z,12.68
2022-08-06T14:53:07.542Z,14.10
2022-08-06T14:55:36.530Z,13.85
2022-08-06T14:58:09.219Z,13.48
2022-08-06T15:00:38.501Z,12.93
2022-08-06T15:03:07.996Z,15.05
2022-08-06T15:06:00.779Z,13.02
2022-08-06T15:08:34.474Z,13.95
2022-08-06T15:11:06.507Z,14.65
2022-08-06T15:13:51.505Z,14.25
2022-08-06T15:16:48.045Z,15.05
2022-08-06T15:19:19.670Z,13.15
2022-08-06T15:21:55.400Z,13.38
2022-08-06T15:26:55.413Z,14.32
2022-08-06T15:29:23.394Z,13.77
2022-08-06T15:31:51.805Z,14.55
2022-08-06T15:34:27.575Z,14.13
2022-08-06T15:37:02.362Z,13.90
2022-08-06T15:39:51.956Z,14.85
2022-08-06T15:42:22.423Z,14.52
2022-08-06T15:44:52.208Z,13.20
2022-08-06T15:47:32.054Z,13.88
2022-08-06T15:50:09.919Z,13.48
2022-08-06T15:52:42.693Z,14.43
2022-08-06T15:55:16.418Z,13.43
2022-08-06T15:58:04.606Z,13.57
2022-08-06T16:00:36.042Z,13.57
2022-08-06T16:03:06.154Z,14.20
2022-08-06T16:06:10.123Z,14.98
2022-08-06T16:08:34.093Z,14.15
2022-08-06T16:11:08.656Z,14.10
2022-08-06T16:13:38.607Z,14.02
2022-08-06T16:16:07.960Z,14.93
2022-08-06T16:18:48.321Z,13.82
2022-08-06T16:21:20.690Z,14.80
2022-08-06T16:23:56.884Z,14.10
2022-08-06T16:26:47.545Z,14.23
2022-08-06T16:29:20.177Z,14.07
2022-08-06T16:31:50.455Z,15.90
2022-08-06T16:34:23.047Z,16.65
2022-08-06T16:36:53.397Z,17.70
2022-08-06T16:39:35.094Z,23.73
2022-08-06T16:42:08.852Z,17.02
2022-08-06T16:44:50.471Z,15.63
2022-08-06T16:47:27.161Z,14.98
2022-08-06T16:50:25.740Z,22.60
2022-08-06T16:54:16.976Z,17.58
2022-08-06T16:55:45.072Z,16.05
2022-08-06T17:02:14.903Z,15.27
2022-08-06T17:03:50.024Z,16.90
2022-08-06T17:06:26.981Z,15.20
2022-08-06T17:08:55.197Z,15.65
2022-08-06T17:11:45.754Z,15.95
2022-08-06T17:14:16.981Z,16.45
2022-08-06T17:16:48.371Z,17.13
2022-08-06T17:19:17.898Z,16.58
2022-08-06T17:21:58.308Z,16.30
2022-08-06T17:24:32.619Z,16.70
2022-08-06T17:27:17.005Z,17.40
2022-08-06T17:30:09.167Z,15.98
2022-08-06T17:36:29.378Z,17.60
2022-08-06T17:38:15.657Z,17.88
2022-08-06T17:40:49.065Z,16.48
2022-08-06T17:43:22.843Z,17.02
2022-08-06T17:46:25.917Z,15.25
2022-08-06T17:48:55.387Z,14.35
2022-08-06T17:51:33.311Z,13.93
2022-08-06T17:54:24.043Z,12.95
2022-08-06T17:56:51.306Z,13.00
2022-08-06T17:59:22.300Z,12.25
2022-08-06T18:02:01.958Z,13.75
2022-08-06T18:04:35.678Z,13.57
2022-08-06T18:07:11.651Z,11.90
2022-08-06T18:10:09.260Z,11.75
2022-08-06T18:12:34.391Z,10.48
2022-08-06T18:15:02.584Z,12.05
2022-08-06T18:17:47.206Z,11.25
2022-08-06T18:20:16.422Z,11.07
2022-08-06T18:22:59.036Z,10.73
2022-08-06T18:28:14.696Z,11.18
2022-08-06T18:30:47.700Z,11.80
2022-08-06T18:33:17.525Z,11.45
2022-08-06T18:35:59.034Z,12.60
2022-08-06T18:38:31.094Z,12.82
2022-08-06T18:41:05.814Z,12.80
2022-08-06T18:43:55.325Z,13.52
2022-08-06T18:46:54.984Z,12.70
2022-08-06T18:49:17.115Z,15.38
2022-08-06T18:51:54.725Z,16.08
2022-08-06T18:54:25.323Z,18.05
2022-08-06T18:56:54.667Z,17.13
2022-08-06T18:59:28.244Z,17.75
2022-08-06T19:01:57.245Z,17.95
2022-08-06T19:04:29.351Z,18.48
2022-08-06T19:07:00.146Z,17.85
2022-08-06T19:12:12.178Z,17.83
2022-08-06T19:14:44.265Z,18.65
2022-08-06T19:17:17.298Z,18.75
2022-08-06T19:20:19.085Z,18.35
2022-08-06T19:22:39.773Z,18.13
2022-08-06T19:25:09.265Z,18.88
2022-08-06T19:28:07.226Z,19.70
2022-08-06T19:30:41.734Z,19.75
2022-08-06T19:33:16.406Z,18.83
2022-08-06T19:36:05.754Z,18.60
2022-08-06T19:38:34.913Z,19.17
2022-08-06T19:41:03.406Z,19.77
2022-08-06T19:44:26.817Z,18.38
2022-08-06T19:46:29.763Z,18.65
2022-08-06T19:49:03.338Z,19.30
2022-08-06T19:52:02.065Z,18.95
2022-08-06T19:54:26.272Z,18.77
2022-08-06T19:57:08.515Z,20.23
2022-08-06T20:00:53.203Z,20.35
2022-08-06T20:02:26.330Z,19.13
2022-08-06T20:04:55.792Z,17.75
2022-08-06T20:07:27.321Z,17.65
2022-08-06T20:12:33.779Z,16.40
2022-08-06T20:15:04.165Z,18.13
2022-08-06T20:17:45.944Z,17.02
2022-08-06T20:20:29.308Z,16.15
2022-08-06T20:23:11.353Z,16.65
2022-08-06T20:26:08.111Z,17.02
2022-08-06T20:29:09.237Z,18.48
2022-08-06T20:31:17.778Z,17.42
2022-08-06T20:33:58.971Z,17.17
2022-08-06T20:36:29.315Z,17.20
2022-08-06T20:38:59.641Z,17.15
2022-08-06T20:42:03.558Z,17.70
2022-08-06T20:44:18.196Z,17.20
2022-08-06T20:47:45.311Z,19.10
2022-08-06T20:50:01.899Z,20.20
2022-08-06T20:52:26.353Z,21.33
2022-08-06T20:57:28.386Z,21.83
2022-08-06T20:59:57.278Z,23.05
2022-08-06T21:02:26.081Z,22.00
2022-08-06T21:05:15.650Z,20.55
2022-08-06T21:07:57.030Z,19.23
2022-08-06T21:10:30.627Z,17.42
2022-08-06T21:13:06.308Z,17.23
2022-08-06T21:15:53.855Z,17.90
2022-08-06T21:18:24.168Z,17.25
2022-08-06T21:20:53.612Z,17.30
2022-08-06T21:23:26.231Z,17.65
2022-08-06T21:26:11.563Z,18.00
2022-08-06T21:28:52.149Z,17.90
2022-08-06T21:31:24.276Z,16.77
2022-08-06T21:33:54.482Z,14.75
2022-08-06T21:36:25.651Z,15.47
2022-08-06T21:38:54.511Z,14.55
2022-08-06T21:41:29.250Z,14.48
2022-08-06T21:44:12.631Z,14.55
2022-08-06T21:46:40.701Z,14.48
2022-08-06T21:49:21.600Z,15.25
2022-08-06T21:52:07.198Z,15.00
2022-08-06T21:54:35.097Z,14.45
2022-08-06T21:57:11.896Z,14.00
2022-08-06T21:59:46.395Z,12.85
2022-08-06T22:02:22.160Z,14.20
2022-08-06T22:05:00.392Z,13.75
2022-08-06T22:08:06.578Z,13.87
2022-08-06T22:10:28.895Z,13.90
2022-08-06T22:13:16.079Z,14.70
2022-08-06T22:15:48.968Z,15.23
2022-08-06T22:18:28.854Z,14.77
2022-08-06T22:20:59.495Z,14.35
2022-08-06T22:23:28.851Z,13.73
2022-08-06T22:25:57.051Z,14.40
2022-08-06T22:28:33.987Z,14.70
2022-08-06T22:31:10.510Z,14.35
2022-08-06T22:33:58.591Z,15.60
2022-08-06T22:36:34.355Z,14.85
2022-08-06T22:39:03.795Z,14.32
2022-08-06T22:44:31.094Z,14.38
2022-08-06T22:47:09.678Z,15.07
2022-08-06T22:50:00.561Z,14.63
2022-08-06T22:52:44.967Z,15.25
2022-08-06T22:55:18.072Z,14.68
2022-08-06T22:58:04.247Z,14.60
2022-08-06T23:00:35.921Z,14.52
2022-08-06T23:03:13.573Z,14.18
2022-08-06T23:05:44.371Z,14.68
2022-08-06T23:08:13.473Z,14.02
2022-08-06T23:10:48.099Z,15.63
2022-08-06T23:13:26.863Z,15.85
2022-08-06T23:16:06.197Z,16.75
2022-08-06T23:18:38.055Z,15.98
2022-08-06T23:21:05.894Z,15.32
2022-08-06T23:23:44.244Z,15.52
2022-08-06T23:26:15.551Z,16.60
2022-08-06T23:28:45.691Z,15.90
2022-08-06T23:31:14.024Z,15.48
2022-08-06T23:33:49.953Z,16.40
2022-08-06T23:36:25.511Z,15.98
2022-08-06T23:38:53.460Z,15.40
2022-08-06T23:41:24.375Z,15.80
2022-08-06T23:44:18.562Z,15.90
2022-08-06T23:46:51.188Z,17.35
2022-08-06T23:49:28.057Z,16.58
2022-08-06T23:52:03.071Z,16.88
2022-08-06T23:54:32.753Z,16.55
2022-08-06T23:57:01.185Z,16.58
2022-08-06T23:59:44.541Z,15.88
